createdAt,value
2023-04-10T00:02:11.889Z,34.90
2023-04-10T00:04:38.831Z,35.45
2023-04-10T00:07:05.668Z,34.55
2023-04-10T00:09:32.336Z,33.85
2023-04-10T00:11:59.569Z,32.78
2023-04-10T00:14:26.415Z,33.70
2023-04-10T00:16:53.260Z,33.03
2023-04-10T00:19:20.365Z,33.08
2023-04-10T00:21:47.205Z,33.35
2023-04-10T00:24:14.098Z,31.80
2023-04-10T00:26:41.074Z,32.97
2023-04-10T00:29:08.191Z,33.53
2023-04-10T00:31:34.891Z,33.30
2023-04-10T00:34:01.660Z,32.58
2023-04-10T00:36:28.622Z,32.95
2023-04-10T00:38:55.351Z,32.65
2023-04-10T00:41:23.848Z,32.97
2023-04-10T00:43:51.056Z,33.60
2023-04-10T00:46:18.060Z,32.72
2023-04-10T00:48:44.886Z,34.85
2023-04-10T00:51:12.303Z,34.42
2023-04-10T00:53:39.065Z,33.83
2023-04-10T00:56:06.949Z,34.28
2023-04-10T00:58:33.683Z,31.77
2023-04-10T01:01:00.479Z,33.97
2023-04-10T01:03:27.532Z,32.50
2023-04-10T01:06:04.631Z,32.65
2023-04-10T01:08:49.828Z,33.67
2023-04-10T01:11:34.740Z,32.30
2023-04-10T01:14:12.211Z,32.35
2023-04-10T01:17:04.116Z,33.67
2023-04-10T01:19:49.261Z,33.53
2023-04-10T01:22:17.211Z,32.65
2023-04-10T01:25:19.188Z,33.30
2023-04-10T01:28:07.758Z,31.88
2023-04-10T01:30:36.447Z,34.13
2023-04-10T01:33:05.795Z,33.28
2023-04-10T01:35:35.455Z,33.80
2023-04-10T01:38:04.685Z,34.27
2023-04-10T01:40:32.799Z,34.22
2023-04-10T01:43:01.900Z,34.55
2023-04-10T01:45:29.386Z,33.40
2023-04-10T01:47:56.559Z,36.45
2023-04-10T01:50:24.517Z,36.00
2023-04-10T01:52:56.209Z,36.85
2023-04-10T01:55:24.152Z,36.00
2023-04-10T01:57:51.874Z,35.90
2023-04-10T02:00:18.729Z,37.72
2023-04-10T02:02:45.891Z,37.90
2023-04-10T02:05:13.202Z,37.17
2023-04-10T02:08:12.013Z,39.80
2023-04-10T02:10:52.102Z,39.70
2023-04-10T02:13:22.040Z,39.72
2023-04-10T02:15:50.710Z,36.97
2023-04-10T02:18:19.656Z,40.58
2023-04-10T02:20:46.413Z,38.65
2023-04-10T02:23:16.818Z,39.33
2023-04-10T02:25:43.521Z,39.92
2023-04-10T02:28:10.241Z,41.42
2023-04-10T02:30:37.015Z,40.53
2023-04-10T02:33:03.853Z,39.53
2023-04-10T02:35:31.114Z,39.28
2023-04-10T02:37:57.841Z,39.92
2023-04-10T02:40:24.608Z,37.45
2023-04-10T02:42:51.567Z,39.03
2023-04-10T02:45:18.357Z,42.53
2023-04-10T02:47:45.196Z,39.78
2023-04-10T02:50:12.131Z,41.42
2023-04-10T02:52:38.838Z,40.47
2023-04-10T02:55:06.375Z,40.85
2023-04-10T02:57:33.209Z,41.17
2023-04-10T03:00:00.004Z,41.10
2023-04-10T03:02:27.145Z,41.60
2023-04-10T03:04:54.036Z,41.67
2023-04-10T03:07:20.812Z,43.28
2023-04-10T03:09:47.703Z,45.60
2023-04-10T03:12:14.562Z,44.67
2023-04-10T03:14:41.466Z,45.50
2023-04-10T03:17:08.225Z,43.03
2023-04-10T03:19:35.045Z,44.70
2023-04-10T03:22:02.256Z,45.25
2023-04-10T03:24:29.107Z,46.10
2023-04-10T03:26:57.182Z,46.67
2023-04-10T03:29:23.994Z,42.35
2023-04-10T03:31:51.001Z,46.90
2023-04-10T03:34:18.473Z,44.72
2023-04-10T03:36:45.412Z,46.33
2023-04-10T03:39:12.226Z,44.65
2023-04-10T03:41:38.890Z,45.03
2023-04-10T03:44:05.678Z,43.70
2023-04-10T03:46:32.393Z,43.92
2023-04-10T03:48:59.126Z,40.65
2023-04-10T03:51:26.625Z,41.55
2023-04-10T03:53:53.764Z,39.50
2023-04-10T03:56:20.798Z,39.35
2023-04-10T03:58:47.547Z,39.08
2023-04-10T04:01:14.306Z,39.22
2023-04-10T04:03:41.200Z,39.58
2023-04-10T04:06:07.983Z,39.97
2023-04-10T04:08:36.350Z,38.25
2023-04-10T04:11:03.192Z,39.13
2023-04-10T04:13:29.956Z,38.85
2023-04-10T04:15:56.644Z,38.15
2023-04-10T04:18:23.318Z,39.30
2023-04-10T04:20:50.274Z,36.33
2023-04-10T04:23:17.850Z,39.15
2023-04-10T04:25:44.557Z,36.55
2023-04-10T04:28:13.629Z,37.10
2023-04-10T04:30:40.372Z,37.88
2023-04-10T04:33:07.166Z,35.92
2023-04-10T04:35:33.996Z,36.97
2023-04-10T04:38:00.879Z,35.30
2023-04-10T04:40:27.589Z,37.83
2023-04-10T04:42:54.268Z,36.25
2023-04-10T04:45:21.923Z,35.28
2023-04-10T04:47:48.716Z,35.92
2023-04-10T04:50:15.526Z,37.00
2023-04-10T04:52:43.240Z,37.72
2023-04-10T04:55:10.320Z,35.03
2023-04-10T04:57:37.091Z,35.47
2023-04-10T05:00:04.218Z,32.83
2023-04-10T05:02:31.047Z,34.65
2023-04-10T05:04:57.951Z,34.90
2023-04-10T05:07:24.648Z,35.28
2023-04-10T05:09:51.850Z,36.40
2023-04-10T05:12:18.556Z,32.75
2023-04-10T05:14:46.062Z,34.40
2023-04-10T05:17:12.783Z,34.40
2023-04-10T05:19:39.454Z,33.72
2023-04-10T05:22:06.259Z,33.22
2023-04-10T05:24:33.022Z,33.53
2023-04-10T05:26:59.709Z,35.28
2023-04-10T05:29:26.602Z,34.17
2023-04-10T05:31:53.580Z,35.47
2023-04-10T05:34:20.296Z,33.75
2023-04-10T05:36:47.156Z,34.90
2023-04-10T05:39:13.931Z,31.45
2023-04-10T05:41:40.669Z,36.58
2023-04-10T05:44:07.541Z,36.47
2023-04-10T05:46:34.234Z,31.08
2023-04-10T05:49:00.940Z,32.53
2023-04-10T05:51:28.764Z,32.42
2023-04-10T05:53:55.443Z,31.50
2023-04-10T05:56:22.108Z,28.35
2023-04-10T05:58:48.812Z,28.60
2023-04-10T06:01:15.561Z,33.42
2023-04-10T06:03:42.384Z,33.53
2023-04-10T06:06:10.463Z,35.42
2023-04-10T06:08:37.233Z,38.00
2023-04-10T06:11:04.028Z,38.33
2023-04-10T06:13:30.736Z,40.03
2023-04-10T06:15:57.524Z,37.13
2023-04-10T06:18:24.206Z,36.05
2023-04-10T06:20:50.960Z,33.17
2023-04-10T06:23:17.782Z,32.05
2023-04-10T06:25:44.517Z,31.13
2023-04-10T06:28:11.277Z,29.85
2023-04-10T06:30:38.097Z,30.35
2023-04-10T06:33:04.928Z,26.40
2023-04-10T06:35:31.834Z,28.70
2023-04-10T06:37:58.582Z,30.48
2023-04-10T06:40:25.381Z,29.88
2023-04-10T06:42:52.092Z,30.15
2023-04-10T06:45:18.950Z,29.30
2023-04-10T06:47:45.918Z,27.65
2023-04-10T06:50:12.681Z,27.38
2023-04-10T06:52:40.445Z,27.73
2023-04-10T06:55:08.646Z,25.13
2023-04-10T06:57:35.490Z,26.00
2023-04-10T07:00:02.308Z,24.20
2023-04-10T07:02:29.142Z,25.13
2023-04-10T07:04:56.937Z,23.10
2023-04-10T07:07:24.338Z,23.10
2023-04-10T07:09:51.289Z,21.15
2023-04-10T07:12:19.410Z,21.83
2023-04-10T07:14:46.207Z,20.77
2023-04-10T07:17:13.003Z,19.85
2023-04-10T07:19:39.880Z,20.25
2023-04-10T07:22:07.486Z,21.05
2023-04-10T07:24:34.205Z,20.58
2023-04-10T07:27:01.981Z,20.08
2023-04-10T07:29:28.804Z,22.75
2023-04-10T07:31:55.630Z,19.80
2023-04-10T07:34:22.478Z,19.27
2023-04-10T07:36:49.294Z,18.08
2023-04-10T07:39:16.098Z,19.83
2023-04-10T07:41:43.553Z,19.42
2023-04-10T07:44:10.639Z,17.30
2023-04-10T07:46:37.872Z,15.93
2023-04-10T07:49:06.088Z,17.67
2023-04-10T07:51:34.111Z,18.23
2023-04-10T07:54:00.996Z,18.20
2023-04-10T07:56:31.264Z,19.67
2023-04-10T07:59:00.821Z,17.42
2023-04-10T08:01:28.840Z,18.03
2023-04-10T08:03:59.009Z,18.17
2023-04-10T08:06:26.018Z,16.33
2023-04-10T08:08:53.065Z,15.98
2023-04-10T08:11:31.576Z,17.23
2023-04-10T08:14:02.970Z,9.30
2023-04-10T08:16:31.523Z,7.38
2023-04-10T08:18:59.564Z,8.07
2023-04-10T08:21:27.771Z,7.95
2023-04-10T08:23:55.983Z,7.93
2023-04-10T08:26:23.019Z,7.70
2023-04-10T08:28:51.461Z,8.68
2023-04-10T08:31:20.027Z,8.23
2023-04-10T08:33:48.034Z,8.13
2023-04-10T08:36:20.204Z,8.50
2023-04-10T08:38:48.097Z,8.95
2023-04-10T08:41:19.314Z,8.38
2023-04-10T08:43:46.783Z,9.70
2023-04-10T08:46:14.978Z,7.95
2023-04-10T08:49:01.870Z,7.72
2023-04-10T08:51:40.787Z,7.10
2023-04-10T08:54:10.901Z,6.68
2023-04-10T08:56:41.585Z,6.82
2023-04-10T08:59:09.072Z,5.95
2023-04-10T09:01:36.484Z,5.85
2023-04-10T09:04:03.554Z,5.97
2023-04-10T09:06:31.482Z,6.07
2023-04-10T09:12:01.239Z,5.35
2023-04-10T09:17:24.037Z,5.10
2023-04-10T09:19:55.895Z,5.15
2023-04-10T09:22:34.016Z,4.95
2023-04-10T09:25:02.774Z,5.05
2023-04-10T09:27:42.221Z,4.47
2023-04-10T09:30:09.265Z,4.20
2023-04-10T09:32:41.596Z,4.25
2023-04-10T09:35:12.947Z,4.07
2023-04-10T09:37:42.247Z,4.25
2023-04-10T09:40:24.667Z,4.63
2023-04-10T09:42:52.401Z,4.28
2023-04-10T09:45:20.484Z,4.25
2023-04-10T09:48:06.714Z,4.25
2023-04-10T09:50:43.642Z,3.50
2023-04-10T09:53:15.450Z,3.60
2023-04-10T09:55:43.455Z,3.80
2023-04-10T09:58:11.459Z,4.00
2023-04-10T10:00:46.396Z,3.95
2023-04-10T10:03:15.432Z,4.00
2023-04-10T10:05:47.655Z,4.15
2023-04-10T10:08:15.758Z,4.35
2023-04-10T10:10:48.926Z,3.72
2023-04-10T10:13:20.753Z,3.80
2023-04-10T10:16:01.697Z,4.03
2023-04-10T10:18:59.406Z,4.47
2023-04-10T10:21:28.431Z,4.00
2023-04-10T10:23:58.726Z,4.13
2023-04-10T10:28:53.319Z,3.95
2023-04-10T10:31:22.554Z,4.50
2023-04-10T10:33:52.710Z,4.20
2023-04-10T10:36:20.640Z,4.30
2023-04-10T10:39:02.690Z,3.88
2023-04-10T10:41:38.197Z,4.40
2023-04-10T10:44:17.940Z,4.20
2023-04-10T10:46:59.026Z,4.13
2023-04-10T10:50:00.049Z,4.38
2023-04-10T10:52:42.740Z,4.65
2023-04-10T10:55:31.564Z,4.63
2023-04-10T10:58:01.205Z,4.57
2023-04-10T11:00:50.435Z,4.97
2023-04-10T11:03:17.523Z,4.82
2023-04-10T11:05:52.312Z,4.88
2023-04-10T11:08:36.423Z,5.25
2023-04-10T11:11:08.141Z,4.90
2023-04-10T11:13:36.852Z,4.93
2023-04-10T11:16:06.503Z,4.82
2023-04-10T11:18:55.895Z,4.72
2023-04-10T11:21:29.737Z,5.30
2023-04-10T11:23:56.420Z,5.15
2023-04-10T11:26:41.032Z,5.32
2023-04-10T11:29:27.867Z,5.57
2023-04-10T11:32:02.757Z,4.60
2023-04-10T11:34:33.386Z,5.30
2023-04-10T11:37:03.175Z,4.90
2023-04-10T11:39:31.377Z,5.13
2023-04-10T11:41:58.261Z,5.32
2023-04-10T11:44:27.792Z,5.40
2023-04-10T11:46:56.582Z,4.38
2023-04-10T11:49:27.968Z,4.97
2023-04-10T11:51:55.590Z,4.97
2023-04-10T11:54:23.453Z,5.68
2023-04-10T11:56:57.185Z,5.82
2023-04-10T11:59:25.545Z,4.75
2023-04-10T12:01:56.409Z,4.38
2023-04-10T12:04:24.409Z,5.00
2023-04-10T12:06:53.588Z,6.97
2023-04-10T12:09:22.191Z,4.15
2023-04-10T12:11:57.027Z,4.45
2023-04-10T12:14:29.142Z,6.18
2023-04-10T12:16:57.138Z,5.65
2023-04-10T12:19:24.187Z,6.05
2023-04-10T12:21:51.567Z,6.35
2023-04-10T12:24:43.823Z,6.28
2023-04-10T12:27:27.684Z,5.50
2023-04-10T12:29:58.460Z,4.50
2023-04-10T12:32:27.820Z,4.82
2023-04-10T12:35:00.768Z,4.33
2023-04-10T12:37:54.508Z,4.68
2023-04-10T12:40:21.602Z,4.28
2023-04-10T12:42:48.379Z,4.13
2023-04-10T12:45:15.661Z,4.50
2023-04-10T12:47:53.789Z,4.10
2023-04-10T12:50:21.149Z,4.40
2023-04-10T12:53:09.132Z,3.72
2023-04-10T12:55:35.857Z,4.53
2023-04-10T12:58:22.712Z,4.47
2023-04-10T13:00:49.724Z,4.28
2023-04-10T13:03:16.628Z,5.47
2023-04-10T13:05:44.419Z,4.50
2023-04-10T13:08:11.120Z,6.15
2023-04-10T13:10:38.402Z,5.60
2023-04-10T13:13:07.311Z,6.07
2023-04-10T13:15:34.748Z,4.40
2023-04-10T13:18:02.001Z,4.22
2023-04-10T13:20:30.502Z,4.28
2023-04-10T13:22:57.218Z,4.45
2023-04-10T13:25:24.084Z,4.80
2023-04-10T13:27:50.981Z,5.25
2023-04-10T13:30:17.708Z,4.35
2023-04-10T13:32:44.429Z,3.70
2023-04-10T13:35:11.957Z,4.32
2023-04-10T13:37:38.667Z,4.50
2023-04-10T13:40:05.880Z,3.72
2023-04-10T13:42:32.778Z,4.93
2023-04-10T13:44:59.474Z,3.97
2023-04-10T13:47:26.224Z,3.85
2023-04-10T13:49:53.023Z,3.67
2023-04-10T13:52:19.756Z,3.50
2023-04-10T13:54:46.684Z,3.00
2023-04-10T13:57:13.459Z,4.00
2023-04-10T13:59:40.211Z,3.85
2023-04-10T14:02:07.256Z,3.10
2023-04-10T14:04:34.058Z,3.97
2023-04-10T14:07:02.078Z,3.40
2023-04-10T14:09:29.268Z,3.83
2023-04-10T14:11:56.144Z,4.03
2023-04-10T14:14:25.663Z,4.03
2023-04-10T14:16:52.545Z,3.95
2023-04-10T14:19:19.558Z,3.65
2023-04-10T14:21:46.308Z,4.13
2023-04-10T14:24:13.395Z,4.30
2023-04-10T14:26:40.275Z,4.00
2023-04-10T14:29:08.713Z,3.55
2023-04-10T14:31:44.178Z,3.10
2023-04-10T14:34:18.503Z,3.10
2023-04-10T14:36:45.387Z,3.40
2023-04-10T14:39:12.100Z,3.38
2023-04-10T14:41:47.445Z,4.35
2023-04-10T14:44:14.337Z,3.28
2023-04-10T14:46:41.184Z,3.55
2023-04-10T14:49:07.897Z,3.55
2023-04-10T14:51:34.832Z,3.50
2023-04-10T14:54:02.496Z,3.53
2023-04-10T14:56:29.323Z,3.42
2023-04-10T14:58:56.212Z,3.30
2023-04-10T15:01:23.011Z,3.70
2023-04-10T15:03:49.986Z,4.25
2023-04-10T15:06:16.976Z,3.70
2023-04-10T15:08:43.761Z,3.70
2023-04-10T15:11:10.892Z,3.80
2023-04-10T15:13:38.557Z,3.72
2023-04-10T15:16:06.255Z,3.45
2023-04-10T15:18:33.765Z,3.42
2023-04-10T15:21:00.619Z,3.92
2023-04-10T15:23:27.529Z,4.15
2023-04-10T15:25:56.018Z,4.32
2023-04-10T15:28:22.799Z,3.75
2023-04-10T15:30:50.201Z,3.50
2023-04-10T15:33:17.441Z,3.22
2023-04-10T15:35:48.516Z,4.00
2023-04-10T15:38:15.485Z,4.30
2023-04-10T15:40:42.251Z,3.97
2023-04-10T15:43:08.994Z,3.10
2023-04-10T15:45:36.917Z,3.97
2023-04-10T15:48:04.732Z,3.80
2023-04-10T15:50:31.739Z,3.58
2023-04-10T15:52:58.537Z,3.40
2023-04-10T15:55:25.314Z,3.17
2023-04-10T15:57:52.156Z,3.20
2023-04-10T16:00:19.270Z,3.55
2023-04-10T16:02:46.406Z,3.97
2023-04-10T16:05:14.501Z,3.90
2023-04-10T16:07:43.527Z,4.80
2023-04-10T16:10:11.204Z,5.93
2023-04-10T16:12:38.511Z,4.80
2023-04-10T16:15:08.139Z,5.30
2023-04-10T16:17:35.292Z,4.80
2023-04-10T16:20:05.891Z,5.00
2023-04-10T16:22:32.885Z,5.70
2023-04-10T16:25:00.426Z,5.00
2023-04-10T16:27:27.400Z,4.78
2023-04-10T16:29:54.178Z,5.18
2023-04-10T16:32:21.235Z,5.47
2023-04-10T16:34:48.020Z,4.90
2023-04-10T16:37:14.802Z,4.75
2023-04-10T16:39:41.590Z,3.85
2023-04-10T16:42:08.414Z,3.78
2023-04-10T16:44:36.017Z,3.72
2023-04-10T16:47:02.871Z,4.75
2023-04-10T16:49:29.803Z,4.18
2023-04-10T16:51:56.526Z,4.15
2023-04-10T16:54:23.264Z,4.75
2023-04-10T16:56:50.046Z,6.18
2023-04-10T16:59:16.788Z,4.53
2023-04-10T17:01:43.601Z,4.28
2023-04-10T17:04:10.555Z,4.32
2023-04-10T17:06:37.374Z,4.43
2023-04-10T17:09:04.406Z,4.22
2023-04-10T17:11:31.343Z,3.83
2023-04-10T17:13:58.072Z,3.55
2023-04-10T17:16:25.026Z,2.90
2023-04-10T17:18:51.875Z,2.70
2023-04-10T17:21:18.820Z,2.70
2023-04-10T17:23:45.966Z,3.20
2023-04-10T17:26:16.751Z,3.60
2023-04-10T17:28:45.157Z,3.17
2023-04-10T17:31:13.745Z,2.78
2023-04-10T17:33:43.556Z,3.15
2023-04-10T17:36:12.300Z,3.10
2023-04-10T17:38:40.210Z,4.25
2023-04-10T17:41:07.825Z,2.78
2023-04-10T17:43:36.032Z,3.80
2023-04-10T17:46:02.774Z,3.55
2023-04-10T17:48:29.847Z,2.90
2023-04-10T17:50:56.636Z,3.90
2023-04-10T17:53:23.436Z,4.40
2023-04-10T17:55:50.161Z,4.45
2023-04-10T17:58:16.948Z,6.50
2023-04-10T18:00:43.842Z,7.55
2023-04-10T18:03:10.707Z,6.90
2023-04-10T18:05:39.744Z,6.80
2023-04-10T18:08:08.472Z,6.47
2023-04-10T18:10:37.090Z,7.45
2023-04-10T18:13:04.663Z,6.75
2023-04-10T18:15:31.385Z,6.68
2023-04-10T18:17:59.593Z,6.65
2023-04-10T18:20:26.628Z,8.27
2023-04-10T18:22:53.937Z,11.05
2023-04-10T18:25:20.776Z,9.55
2023-04-10T18:28:09.569Z,9.25
2023-04-10T18:30:38.928Z,11.75
2023-04-10T18:33:09.899Z,11.10
2023-04-10T18:35:38.117Z,10.63
2023-04-10T18:38:05.006Z,11.63
2023-04-10T18:40:31.876Z,11.10
2023-04-10T18:42:59.726Z,11.15
2023-04-10T18:45:26.516Z,10.80
2023-04-10T18:47:53.665Z,11.93
2023-04-10T18:50:20.704Z,13.77
2023-04-10T18:52:47.492Z,14.82
2023-04-10T18:55:14.412Z,18.25
2023-04-10T18:57:41.376Z,18.73
2023-04-10T19:00:09.621Z,18.58
2023-04-10T19:02:36.448Z,22.13
2023-04-10T19:05:03.583Z,22.60
2023-04-10T19:07:32.437Z,22.08
2023-04-10T19:09:59.301Z,21.90
2023-04-10T19:12:26.085Z,21.30
2023-04-10T19:14:52.797Z,20.10
2023-04-10T19:17:21.986Z,18.92
2023-04-10T19:19:48.859Z,17.00
2023-04-10T19:22:16.337Z,16.60
2023-04-10T19:24:43.099Z,17.20
2023-04-10T19:27:09.911Z,16.40
2023-04-10T19:29:36.664Z,15.70
2023-04-10T19:32:04.277Z,13.15
2023-04-10T19:34:31.130Z,13.27
2023-04-10T19:36:58.628Z,13.02
2023-04-10T19:39:25.640Z,14.20
2023-04-10T19:41:52.376Z,13.05
2023-04-10T19:44:19.300Z,13.90
2023-04-10T19:46:48.347Z,13.05
2023-04-10T19:49:15.335Z,13.15
2023-04-10T19:51:42.304Z,10.48
2023-04-10T19:54:09.163Z,11.35
2023-04-10T19:56:37.761Z,11.70
2023-04-10T19:59:04.611Z,10.60
2023-04-10T20:01:31.517Z,9.68
2023-04-10T20:03:58.361Z,8.90
2023-04-10T20:06:27.235Z,8.73
2023-04-10T20:08:54.452Z,8.80
2023-04-10T20:11:21.583Z,7.97
2023-04-10T20:13:48.423Z,7.50
2023-04-10T20:16:15.883Z,8.05
2023-04-10T20:18:42.640Z,7.50
2023-04-10T20:21:09.453Z,7.57
2023-04-10T20:23:37.737Z,7.50
2023-04-10T20:26:04.590Z,8.25
2023-04-10T20:28:31.743Z,7.35
2023-04-10T20:30:58.657Z,7.72
2023-04-10T20:33:25.568Z,7.72
2023-04-10T20:35:53.091Z,7.63
2023-04-10T20:38:20.015Z,8.38
2023-04-10T20:40:46.846Z,9.32
2023-04-10T20:43:14.217Z,8.50
2023-04-10T20:45:41.442Z,8.52
2023-04-10T20:48:09.204Z,8.43
2023-04-10T20:50:37.572Z,8.85
2023-04-10T20:53:04.418Z,9.02
2023-04-10T20:55:31.344Z,8.43
2023-04-10T20:57:58.868Z,10.65
2023-04-10T21:00:25.910Z,10.30
2023-04-10T21:02:53.288Z,10.98
2023-04-10T21:05:20.219Z,11.23
2023-04-10T21:07:48.499Z,13.35
2023-04-10T21:10:15.453Z,13.73
2023-04-10T21:12:43.207Z,14.18
2023-04-10T21:15:10.416Z,14.57
2023-04-10T21:17:37.435Z,15.35
2023-04-10T21:20:04.435Z,17.42
2023-04-10T21:22:31.635Z,22.80
2023-04-10T21:24:58.616Z,23.55
2023-04-10T21:27:25.443Z,29.10
2023-04-10T21:29:52.512Z,28.80
2023-04-10T21:32:19.477Z,33.40
2023-04-10T21:34:46.590Z,34.17
2023-04-10T21:37:13.457Z,34.60
2023-04-10T21:39:43.578Z,35.30
2023-04-10T21:42:10.465Z,31.92
2023-04-10T21:44:37.629Z,30.10
2023-04-10T21:47:04.938Z,34.08
2023-04-10T21:49:31.841Z,29.52
2023-04-10T21:51:59.648Z,27.27
2023-04-10T21:54:27.620Z,25.08
2023-04-10T21:56:54.508Z,24.73
2023-04-10T21:59:21.403Z,25.42
2023-04-10T22:01:48.414Z,23.63
2023-04-10T22:04:15.635Z,26.45
2023-04-10T22:06:42.625Z,23.50
2023-04-10T22:09:09.534Z,23.83
2023-04-10T22:11:39.178Z,25.27
2023-04-10T22:14:16.116Z,25.02
2023-04-10T22:16:44.242Z,25.52
2023-04-10T22:19:11.059Z,26.17
2023-04-10T22:21:38.038Z,25.88
2023-04-10T22:24:05.250Z,26.02
2023-04-10T22:26:33.609Z,25.98
2023-04-10T22:29:00.571Z,26.40
2023-04-10T22:31:27.405Z,24.23
2023-04-10T22:33:54.760Z,22.40
2023-04-10T22:36:22.053Z,23.13
2023-04-10T22:38:55.233Z,21.90
2023-04-10T22:41:22.216Z,21.77
2023-04-10T22:43:48.955Z,22.08
2023-04-10T22:46:15.757Z,21.85
2023-04-10T22:48:43.160Z,20.67
2023-04-10T22:51:11.972Z,20.38
2023-04-10T22:53:39.365Z,20.70
2023-04-10T22:56:10.156Z,18.70
2023-04-10T22:58:40.748Z,18.80
2023-04-10T23:03:36.103Z,18.63
2023-04-10T23:06:02.913Z,18.45
2023-04-10T23:08:29.726Z,18.42
2023-04-10T23:10:56.509Z,17.55
2023-04-10T23:13:23.293Z,17.38
2023-04-10T23:15:51.240Z,19.13
2023-04-10T23:18:18.312Z,17.42
2023-04-10T23:20:46.364Z,17.33
2023-04-10T23:23:13.442Z,19.30
2023-04-10T23:25:40.210Z,19.02
2023-04-10T23:28:06.967Z,19.08
2023-04-10T23:30:33.894Z,18.23
2023-04-10T23:33:00.694Z,19.90
2023-04-10T23:35:27.994Z,22.48
2023-04-10T23:37:54.861Z,21.27
2023-04-10T23:40:21.773Z,23.05
2023-04-10T23:42:48.710Z,25.20
2023-04-10T23:45:15.581Z,26.42
2023-04-10T23:47:42.421Z,29.55
2023-04-10T23:50:10.728Z,30.55
2023-04-10T23:52:37.584Z,32.08
2023-04-10T23:55:04.783Z,30.85
2023-04-10T23:57:32.862Z,31.23
